createdAt,value
2019-04-06T00:02:18.859Z,18.02
2019-04-06T00:04:47.300Z,17.48
2019-04-06T00:07:15.789Z,18.82
2019-04-06T00:09:44.316Z,17.07
2019-04-06T00:12:12.740Z,17.00
2019-04-06T00:14:41.309Z,19.90
2019-04-06T00:17:09.719Z,14.03
2019-04-06T00:19:38.161Z,16.77
2019-04-06T00:22:06.606Z,17.05
2019-04-06T00:24:35.135Z,17.23
2019-04-06T00:27:03.629Z,15.25
2019-04-06T00:29:32.098Z,19.55
2019-04-06T00:32:04.974Z,19.90
2019-04-06T00:34:33.554Z,19.65
2019-04-06T00:37:01.998Z,19.50
2019-04-06T00:39:30.492Z,20.10
2019-04-06T00:41:58.960Z,16.65
2019-04-06T00:44:27.415Z,16.85
2019-04-06T00:46:55.912Z,20.32
2019-04-06T00:49:24.409Z,20.30
2019-04-06T00:51:52.808Z,19.40
2019-04-06T00:54:21.261Z,19.10
2019-04-06T00:56:49.783Z,19.45
2019-04-06T00:59:18.324Z,18.73
2019-04-06T01:01:46.848Z,20.77
2019-04-06T01:04:15.291Z,20.05
2019-04-06T01:06:43.764Z,22.58
2019-04-06T01:09:12.273Z,20.40
2019-04-06T01:11:40.771Z,20.15
2019-04-06T01:14:09.208Z,21.60
2019-04-06T01:16:37.696Z,19.27
2019-04-06T01:19:06.368Z,18.50
2019-04-06T01:21:34.794Z,20.32
2019-04-06T01:24:03.216Z,20.30
2019-04-06T01:26:31.812Z,18.55
2019-04-06T01:29:00.227Z,17.27
2019-04-06T01:31:28.739Z,17.98
2019-04-06T01:33:59.014Z,17.95
2019-04-06T01:36:27.893Z,19.07
2019-04-06T01:38:56.322Z,19.05
2019-04-06T01:41:24.983Z,19.02
2019-04-06T01:43:53.394Z,18.10
2019-04-06T01:46:23.179Z,18.05
2019-04-06T01:48:51.568Z,18.35
2019-04-06T01:51:20.262Z,23.80
2019-04-06T01:53:48.694Z,20.68
2019-04-06T01:56:18.742Z,22.30
2019-04-06T01:58:47.518Z,21.48
2019-04-06T02:01:17.610Z,20.57
2019-04-06T02:03:46.061Z,20.15
2019-04-06T02:06:14.558Z,22.90
2019-04-06T02:08:43.009Z,20.97
2019-04-06T02:11:11.501Z,23.62
2019-04-06T02:13:39.942Z,26.27
2019-04-06T02:16:08.439Z,25.23
2019-04-06T02:18:36.906Z,22.95
2019-04-06T02:21:05.439Z,23.02
2019-04-06T02:23:33.863Z,25.35
2019-04-06T02:26:02.431Z,21.17
2019-04-06T02:28:30.955Z,22.58
2019-04-06T02:31:16.074Z,23.30
2019-04-06T02:33:48.736Z,21.40
2019-04-06T02:36:35.104Z,17.85
2019-04-06T02:39:09.555Z,19.02
2019-04-06T02:41:42.680Z,18.05
2019-04-06T02:44:11.153Z,21.65
2019-04-06T02:46:39.724Z,17.77
2019-04-06T02:49:08.201Z,20.75
2019-04-06T02:51:36.625Z,21.05
2019-04-06T02:54:05.209Z,19.92
2019-04-06T02:56:45.508Z,20.75
2019-04-06T02:59:03.956Z,21.10
2019-04-06T03:01:32.393Z,17.85
2019-04-06T03:04:01.062Z,21.40
2019-04-06T03:06:30.029Z,16.25
2019-04-06T03:08:58.613Z,19.12
2019-04-06T03:11:27.144Z,20.23
2019-04-06T03:13:55.742Z,24.55
2019-04-06T03:16:24.201Z,23.70
2019-04-06T03:18:52.753Z,22.85
2019-04-06T03:21:21.172Z,27.70
2019-04-06T03:23:52.131Z,26.12
2019-04-06T03:26:20.105Z,28.30
2019-04-06T03:28:48.903Z,21.10
2019-04-06T03:31:22.771Z,23.85
2019-04-06T03:33:47.659Z,25.72
2019-04-06T03:36:16.135Z,22.82
2019-04-06T03:38:44.642Z,25.85
2019-04-06T03:41:13.268Z,24.40
2019-04-06T03:43:41.722Z,20.12
2019-04-06T03:46:10.338Z,20.75
2019-04-06T03:48:38.735Z,23.07
2019-04-06T03:51:07.465Z,23.15
2019-04-06T03:53:35.945Z,22.02
2019-04-06T03:56:05.561Z,25.60
2019-04-06T03:58:34.009Z,20.45
2019-04-06T04:01:02.468Z,21.35
2019-04-06T04:03:30.955Z,20.40
2019-04-06T04:05:59.469Z,19.60
2019-04-06T04:08:27.911Z,23.30
2019-04-06T04:10:56.359Z,20.08
2019-04-06T04:13:24.893Z,21.12
2019-04-06T04:15:56.340Z,20.50
2019-04-06T04:18:23.616Z,25.62
2019-04-06T04:20:52.083Z,27.35
2019-04-06T04:23:20.526Z,22.37
2019-04-06T04:25:48.998Z,22.00
2019-04-06T04:28:17.432Z,20.20
2019-04-06T04:30:45.888Z,19.70
2019-04-06T04:33:14.317Z,17.65
2019-04-06T04:35:42.779Z,17.60
2019-04-06T04:38:11.337Z,20.52
2019-04-06T04:40:40.073Z,22.07
2019-04-06T04:43:08.535Z,19.75
2019-04-06T04:45:37.000Z,18.73
2019-04-06T04:48:05.673Z,19.07
2019-04-06T04:50:34.121Z,20.70
2019-04-06T04:53:02.649Z,22.82
2019-04-06T04:55:31.184Z,20.50
2019-04-06T04:57:59.605Z,21.82
2019-04-06T05:00:28.039Z,21.10
2019-04-06T05:02:56.617Z,21.20
2019-04-06T05:05:25.143Z,19.17
2019-04-06T05:07:53.597Z,23.87
2019-04-06T05:10:22.038Z,23.12
2019-04-06T05:12:50.479Z,27.35
2019-04-06T05:15:33.794Z,19.32
2019-04-06T05:18:02.314Z,22.10
2019-04-06T05:20:30.734Z,21.48
2019-04-06T05:22:59.411Z,24.45
2019-04-06T05:25:27.911Z,27.58
2019-04-06T05:27:56.340Z,23.20
2019-04-06T05:30:24.887Z,24.05
2019-04-06T05:32:53.313Z,27.55
2019-04-06T05:35:21.793Z,20.72
2019-04-06T05:37:50.252Z,21.60
2019-04-06T05:40:18.876Z,32.90
2019-04-06T05:42:47.331Z,28.32
2019-04-06T05:45:16.023Z,24.90
2019-04-06T05:47:44.972Z,25.68
2019-04-06T05:50:13.655Z,22.22
2019-04-06T05:52:42.121Z,28.47
2019-04-06T05:55:10.672Z,28.27
2019-04-06T05:57:39.102Z,18.60
2019-04-06T06:00:10.127Z,21.52
2019-04-06T06:02:41.355Z,22.22
2019-04-06T06:05:13.424Z,20.55
2019-04-06T06:07:41.850Z,20.80
2019-04-06T06:10:10.539Z,20.05
2019-04-06T06:12:39.112Z,19.70
2019-04-06T06:15:08.081Z,20.20
2019-04-06T06:17:36.501Z,20.82
2019-04-06T06:20:07.051Z,21.42
2019-04-06T06:22:35.687Z,24.75
2019-04-06T06:25:06.443Z,22.90
2019-04-06T06:27:35.222Z,18.62
2019-04-06T06:30:05.696Z,19.62
2019-04-06T06:32:34.162Z,22.17
2019-04-06T06:35:02.762Z,20.12
2019-04-06T06:37:31.196Z,21.33
2019-04-06T06:39:59.787Z,23.25
2019-04-06T06:42:28.437Z,18.73
2019-04-06T06:44:57.311Z,20.88
2019-04-06T06:47:25.792Z,17.23
2019-04-06T06:49:54.217Z,17.80
2019-04-06T06:52:22.730Z,24.18
2019-04-06T06:54:51.170Z,18.37
2019-04-06T06:57:19.628Z,16.52
2019-04-06T06:59:48.122Z,17.50
2019-04-06T07:02:16.572Z,20.00
2019-04-06T07:04:44.992Z,17.82
2019-04-06T07:07:13.448Z,19.00
2019-04-06T07:09:41.899Z,17.87
2019-04-06T07:12:10.791Z,18.77
2019-04-06T07:14:39.372Z,16.95
2019-04-06T07:17:07.818Z,17.02
2019-04-06T07:19:36.238Z,19.23
2019-04-06T07:22:04.926Z,19.30
2019-04-06T07:24:33.367Z,19.50
2019-04-06T07:27:02.174Z,16.95
2019-04-06T07:29:30.607Z,16.55
2019-04-06T07:31:59.344Z,16.45
2019-04-06T07:34:29.312Z,17.23
2019-04-06T07:36:57.741Z,19.37
2019-04-06T07:39:26.228Z,21.45
2019-04-06T07:41:54.681Z,19.92
2019-04-06T07:44:23.204Z,18.60
2019-04-06T07:46:51.870Z,19.40
2019-04-06T07:49:20.307Z,20.32
2019-04-06T07:51:48.739Z,20.45
2019-04-06T07:54:17.210Z,18.17
2019-04-06T07:56:45.699Z,19.30
2019-04-06T07:59:14.221Z,19.10
2019-04-06T08:01:42.758Z,19.12
2019-04-06T08:04:11.457Z,21.00
2019-04-06T08:06:39.996Z,19.50
2019-04-06T08:09:08.873Z,22.48
2019-04-06T08:11:37.863Z,19.90
2019-04-06T08:14:06.417Z,22.22
2019-04-06T08:16:34.854Z,21.48
2019-04-06T08:19:03.355Z,21.33
2019-04-06T08:21:31.811Z,19.77
2019-04-06T08:24:00.239Z,21.75
2019-04-06T08:26:28.799Z,21.80
2019-04-06T08:29:01.517Z,21.20
2019-04-06T08:31:27.382Z,22.55
2019-04-06T08:33:55.831Z,24.30
2019-04-06T08:36:24.409Z,21.50
2019-04-06T08:38:52.857Z,21.05
2019-04-06T08:41:21.391Z,22.32
2019-04-06T08:43:49.886Z,21.10
2019-04-06T08:46:18.429Z,22.48
2019-04-06T08:48:46.929Z,22.87
2019-04-06T08:51:15.511Z,22.42
2019-04-06T08:53:44.114Z,22.30
2019-04-06T08:56:12.691Z,22.67
2019-04-06T08:58:41.464Z,22.50
2019-04-06T09:01:10.175Z,22.42
2019-04-06T09:03:38.617Z,23.22
2019-04-06T09:06:07.085Z,21.48
2019-04-06T09:08:35.662Z,23.67
2019-04-06T09:11:04.220Z,24.45
2019-04-06T09:13:32.712Z,27.00
2019-04-06T09:16:03.700Z,22.60
2019-04-06T09:18:31.582Z,22.87
2019-04-06T09:21:00.193Z,23.92
2019-04-06T09:23:28.667Z,24.12
2019-04-06T09:25:57.478Z,24.12
2019-04-06T09:28:25.911Z,24.10
2019-04-06T09:30:54.676Z,22.98
2019-04-06T09:33:23.149Z,22.05
2019-04-06T09:35:51.577Z,22.17
2019-04-06T09:38:20.000Z,21.90
2019-04-06T09:40:49.673Z,24.32
2019-04-06T09:43:18.861Z,22.48
2019-04-06T09:45:54.799Z,22.37
2019-04-06T09:48:41.170Z,22.67
2019-04-06T09:51:26.307Z,23.40
2019-04-06T09:54:07.334Z,25.70
2019-04-06T09:56:46.677Z,23.35
2019-04-06T09:59:19.852Z,25.32
2019-04-06T10:01:49.937Z,24.82
2019-04-06T10:04:22.414Z,25.10
2019-04-06T10:06:52.521Z,24.23
2019-04-06T10:09:40.800Z,24.37
2019-04-06T10:12:25.926Z,25.70
2019-04-06T10:15:14.981Z,26.68
2019-04-06T10:18:00.190Z,23.50
2019-04-06T10:20:30.313Z,24.63
2019-04-06T10:23:02.858Z,25.52
2019-04-06T10:25:49.493Z,24.12
2019-04-06T10:28:31.967Z,23.67
2019-04-06T10:31:02.321Z,24.52
2019-04-06T10:33:32.632Z,25.77
2019-04-06T10:36:11.277Z,25.00
2019-04-06T10:38:58.003Z,24.65
2019-04-06T10:41:40.216Z,24.35
2019-04-06T10:44:10.313Z,24.65
2019-04-06T10:46:49.493Z,25.20
2019-04-06T10:49:22.434Z,26.02
2019-04-06T10:51:55.371Z,24.85
2019-04-06T10:54:34.546Z,24.05
2019-04-06T10:57:10.089Z,24.57
2019-04-06T11:00:02.318Z,25.70
2019-04-06T11:02:46.730Z,23.65
2019-04-06T11:05:16.907Z,25.68
2019-04-06T11:07:52.744Z,26.07
2019-04-06T11:10:23.317Z,24.12
2019-04-06T11:12:59.421Z,24.63
2019-04-06T11:15:29.491Z,25.45
2019-04-06T11:18:05.039Z,23.07
2019-04-06T11:20:35.180Z,26.48
2019-04-06T11:23:21.716Z,24.47
2019-04-06T11:25:51.778Z,25.35
2019-04-06T11:28:22.008Z,24.35
2019-04-06T11:30:52.240Z,24.77
2019-04-06T11:33:28.126Z,26.73
2019-04-06T11:35:58.307Z,25.95
2019-04-06T11:38:34.303Z,25.97
2019-04-06T11:41:22.643Z,26.02
2019-04-06T11:44:09.108Z,25.70
2019-04-06T11:46:39.225Z,24.02
2019-04-06T11:49:15.100Z,24.92
2019-04-06T11:51:51.032Z,25.35
2019-04-06T11:54:21.099Z,24.67
2019-04-06T11:57:06.518Z,27.02
2019-04-06T11:59:54.656Z,24.95
2019-04-06T12:02:30.324Z,25.82
2019-04-06T12:05:03.527Z,26.12
2019-04-06T12:07:49.886Z,26.07
2019-04-06T12:10:28.817Z,29.27
2019-04-06T12:13:11.303Z,29.45
2019-04-06T12:15:47.355Z,27.42
2019-04-06T12:18:18.511Z,30.15
2019-04-06T12:21:03.843Z,27.87
2019-04-06T12:23:34.105Z,31.52
2019-04-06T12:26:13.491Z,31.20
2019-04-06T12:28:55.576Z,28.55
2019-04-06T12:31:41.797Z,29.77
2019-04-06T12:34:20.832Z,31.23
2019-04-06T12:37:08.730Z,32.93
2019-04-06T12:39:53.128Z,30.85
2019-04-06T12:42:34.982Z,32.42
2019-04-06T12:45:05.356Z,31.80
2019-04-06T12:47:41.879Z,33.65
2019-04-06T12:50:14.902Z,33.75
2019-04-06T12:52:51.413Z,31.97
2019-04-06T12:55:21.597Z,32.67
2019-04-06T12:57:55.298Z,33.28
2019-04-06T13:00:51.217Z,34.08
2019-04-06T13:03:30.142Z,32.50
2019-04-06T13:06:09.044Z,32.80
2019-04-06T13:08:44.721Z,33.25
2019-04-06T13:11:31.093Z,34.63
2019-04-06T13:14:04.439Z,33.35
2019-04-06T13:16:40.725Z,32.70
2019-04-06T13:19:10.866Z,31.35
2019-04-06T13:21:47.065Z,28.85
2019-04-06T13:24:29.182Z,32.65
2019-04-06T13:27:14.691Z,30.05
2019-04-06T13:29:44.806Z,31.33
2019-04-06T13:32:20.719Z,33.45
2019-04-06T13:34:51.123Z,30.40
2019-04-06T13:37:30.193Z,31.25
2019-04-06T13:40:09.297Z,31.48
2019-04-06T13:42:55.691Z,30.92
2019-04-06T13:45:42.361Z,30.27
2019-04-06T13:48:12.539Z,30.50
2019-04-06T13:50:51.946Z,29.57
2019-04-06T13:53:30.680Z,30.57
2019-04-06T13:56:12.684Z,29.65
2019-04-06T13:58:48.570Z,27.22
2019-04-06T14:01:21.631Z,31.37
2019-04-06T14:04:04.125Z,28.35
2019-04-06T14:06:43.361Z,29.07
2019-04-06T14:09:22.442Z,28.20
2019-04-06T14:11:53.344Z,32.95
2019-04-06T14:14:38.891Z,31.65
2019-04-06T14:17:15.033Z,30.97
2019-04-06T14:19:54.144Z,31.95
2019-04-06T14:22:24.308Z,30.40
2019-04-06T14:25:05.962Z,29.45
2019-04-06T14:27:52.618Z,29.80
2019-04-06T14:30:22.733Z,30.70
2019-04-06T14:32:52.966Z,31.70
2019-04-06T14:35:23.347Z,31.87
2019-04-06T14:38:05.774Z,31.12
2019-04-06T14:40:36.166Z,31.12
2019-04-06T14:43:09.890Z,28.92
2019-04-06T14:45:43.378Z,29.98
2019-04-06T14:48:29.884Z,28.57
2019-04-06T14:51:08.988Z,30.48
2019-04-06T14:53:39.194Z,32.33
2019-04-06T14:56:12.606Z,26.90
2019-04-06T14:58:45.520Z,27.40
2019-04-06T15:01:15.617Z,28.38
2019-04-06T15:03:54.202Z,28.83
2019-04-06T15:06:40.607Z,29.60
2019-04-06T15:09:20.514Z,28.32
2019-04-06T15:11:59.540Z,26.95
2019-04-06T15:14:29.626Z,28.25
2019-04-06T15:17:11.688Z,26.87
2019-04-06T15:19:45.562Z,26.37
2019-04-06T15:22:24.979Z,27.67
2019-04-06T15:25:10.306Z,29.32
2019-04-06T15:27:51.978Z,26.27
2019-04-06T15:30:28.214Z,25.57
2019-04-06T15:33:01.041Z,29.23
2019-04-06T15:35:39.931Z,26.50
2019-04-06T15:38:16.030Z,29.25
2019-04-06T15:40:48.841Z,24.87
2019-04-06T15:43:22.271Z,26.90
2019-04-06T15:45:58.434Z,32.38
2019-04-06T15:48:39.898Z,37.45
2019-04-06T15:51:14.943Z,29.15
2019-04-06T15:53:53.881Z,27.00
2019-04-06T15:56:40.405Z,26.20
2019-04-06T15:59:22.483Z,25.82
2019-04-06T16:02:08.730Z,28.12
2019-04-06T16:04:48.051Z,26.52
2019-04-06T16:07:33.419Z,28.77
2019-04-06T16:10:17.290Z,26.50
2019-04-06T16:12:59.697Z,26.35
2019-04-06T16:15:42.440Z,31.10
2019-04-06T16:18:29.144Z,30.02
2019-04-06T16:21:02.616Z,28.80
2019-04-06T16:23:35.782Z,29.07
2019-04-06T16:26:17.880Z,25.92
2019-04-06T16:28:48.120Z,26.10
2019-04-06T16:31:34.531Z,27.80
2019-04-06T16:34:20.945Z,26.30
2019-04-06T16:37:07.165Z,25.48
2019-04-06T16:39:43.514Z,27.65
2019-04-06T16:42:29.836Z,28.38
2019-04-06T16:45:05.691Z,34.80
2019-04-06T16:47:35.882Z,29.52
2019-04-06T16:50:15.620Z,27.10
2019-04-06T16:52:45.642Z,28.98
2019-04-06T16:55:33.623Z,28.73
2019-04-06T16:58:18.757Z,41.60
2019-04-06T17:01:06.979Z,30.15
2019-04-06T17:03:37.603Z,28.80
2019-04-06T17:06:13.902Z,32.65
2019-04-06T17:08:49.781Z,66.00
2019-04-06T17:11:36.276Z,59.08
2019-04-06T17:14:06.651Z,54.27
2019-04-06T17:16:52.114Z,36.50
2019-04-06T17:19:31.259Z,30.90
2019-04-06T17:22:06.864Z,45.43
2019-04-06T17:24:40.141Z,39.60
2019-04-06T17:27:12.962Z,27.77
2019-04-06T17:29:58.147Z,27.02
2019-04-06T17:32:37.210Z,28.95
2019-04-06T17:35:07.378Z,27.62
2019-04-06T17:37:53.618Z,26.77
2019-04-06T17:40:26.744Z,27.82
2019-04-06T17:42:57.161Z,28.12
2019-04-06T17:45:30.240Z,31.42
2019-04-06T17:48:06.043Z,30.77
2019-04-06T17:50:42.248Z,30.15
2019-04-06T17:53:28.282Z,30.25
2019-04-06T17:55:59.551Z,27.70
2019-04-06T17:58:33.235Z,32.25
2019-04-06T18:01:06.483Z,31.05
2019-04-06T18:03:51.903Z,35.28
2019-04-06T18:06:31.298Z,28.38
2019-04-06T18:09:07.689Z,28.05
2019-04-06T18:11:44.582Z,34.70
2019-04-06T18:14:13.388Z,36.05
2019-04-06T18:16:41.996Z,32.40
2019-04-06T18:19:10.431Z,41.45
2019-04-06T18:21:39.182Z,33.25
2019-04-06T18:24:07.625Z,32.08
2019-04-06T18:26:36.088Z,31.82
2019-04-06T18:29:04.996Z,34.48
2019-04-06T18:31:44.567Z,33.70
2019-04-06T18:34:13.682Z,35.05
2019-04-06T18:36:44.382Z,30.12
2019-04-06T18:39:14.642Z,29.27
2019-04-06T18:41:43.529Z,28.87
2019-04-06T18:44:12.045Z,29.72
2019-04-06T18:46:40.596Z,31.73
2019-04-06T18:49:09.115Z,30.08
2019-04-06T18:51:37.732Z,28.87
2019-04-06T18:54:08.326Z,27.98
2019-04-06T18:56:36.493Z,27.80
2019-04-06T18:59:05.323Z,29.32
2019-04-06T19:01:33.833Z,33.53
2019-04-06T19:04:02.388Z,32.60
2019-04-06T19:06:30.906Z,30.92
2019-04-06T19:08:59.598Z,33.02
2019-04-06T19:11:28.146Z,25.92
2019-04-06T19:13:56.749Z,28.30
2019-04-06T19:16:25.253Z,30.45
2019-04-06T19:18:53.827Z,23.55
2019-04-06T19:21:22.304Z,28.12
2019-04-06T19:23:50.799Z,24.12
2019-04-06T19:26:19.446Z,24.70
2019-04-06T19:28:47.900Z,27.73
2019-04-06T19:31:16.902Z,31.10
2019-04-06T19:33:45.717Z,34.00
2019-04-06T19:36:14.709Z,33.67
2019-04-06T19:38:43.816Z,31.50
2019-04-06T19:41:12.463Z,26.20
2019-04-06T19:43:40.992Z,27.55
2019-04-06T19:46:09.488Z,27.25
2019-04-06T19:48:40.385Z,26.62
2019-04-06T19:51:08.643Z,27.13
2019-04-06T19:53:37.864Z,25.70
2019-04-06T19:56:06.584Z,27.15
2019-04-06T19:58:35.122Z,23.27
2019-04-06T20:01:03.611Z,27.13
2019-04-06T20:03:36.971Z,26.80
2019-04-06T20:06:02.710Z,31.95
2019-04-06T20:08:31.144Z,32.93
2019-04-06T20:10:59.783Z,31.00
2019-04-06T20:13:29.456Z,28.12
2019-04-06T20:15:58.198Z,27.80
2019-04-06T20:18:26.648Z,30.62
2019-04-06T20:20:55.230Z,36.15
2019-04-06T20:23:24.229Z,34.00
2019-04-06T20:25:53.092Z,35.58
2019-04-06T20:28:22.178Z,32.13
2019-04-06T20:30:50.864Z,28.40
2019-04-06T20:33:20.541Z,28.60
2019-04-06T20:35:49.203Z,33.25
2019-04-06T20:38:17.712Z,30.88
2019-04-06T20:40:46.343Z,31.50
2019-04-06T20:43:14.817Z,31.27
2019-04-06T20:45:43.750Z,34.75
2019-04-06T20:48:12.186Z,29.60
2019-04-06T20:50:40.869Z,36.70
2019-04-06T20:53:09.894Z,36.80
2019-04-06T20:55:38.740Z,45.38
2019-04-06T20:58:07.395Z,34.10
2019-04-06T21:00:36.255Z,37.78
2019-04-06T21:03:05.211Z,37.23
2019-04-06T21:05:33.698Z,38.02
2019-04-06T21:08:02.282Z,40.48
2019-04-06T21:10:30.733Z,28.17
2019-04-06T21:12:59.232Z,27.37
2019-04-06T21:15:28.293Z,29.12
2019-04-06T21:17:56.846Z,28.62
2019-04-06T21:20:25.275Z,30.15
2019-04-06T21:22:53.715Z,29.52
2019-04-06T21:25:22.269Z,29.57
2019-04-06T21:27:51.353Z,30.88
2019-04-06T21:30:20.028Z,32.00
2019-04-06T21:32:48.865Z,31.35
2019-04-06T21:35:17.973Z,29.70
2019-04-06T21:37:46.665Z,29.30
2019-04-06T21:40:15.886Z,29.65
2019-04-06T21:42:45.863Z,34.05
2019-04-06T21:45:15.261Z,32.78
2019-04-06T21:47:44.227Z,32.45
2019-04-06T21:50:12.841Z,27.98
2019-04-06T21:52:41.368Z,30.15
2019-04-06T21:55:13.726Z,28.75
2019-04-06T21:57:43.068Z,29.95
2019-04-06T22:00:14.137Z,25.90
2019-04-06T22:02:42.706Z,27.60
2019-04-06T22:05:11.526Z,26.17
2019-04-06T22:07:48.131Z,29.27
2019-04-06T22:10:11.921Z,29.60
2019-04-06T22:12:41.475Z,28.75
2019-04-06T22:15:12.807Z,29.80
2019-04-06T22:17:41.229Z,26.73
2019-04-06T22:20:09.832Z,30.37
2019-04-06T22:22:38.246Z,28.42
2019-04-06T22:25:07.473Z,29.32
2019-04-06T22:27:35.995Z,29.15
2019-04-06T22:30:09.573Z,31.23
2019-04-06T22:32:38.329Z,29.15
2019-04-06T22:35:07.813Z,30.08
2019-04-06T22:37:37.175Z,29.02
2019-04-06T22:40:07.485Z,30.02
2019-04-06T22:42:36.594Z,29.25
2019-04-06T22:45:08.350Z,33.13
2019-04-06T22:47:37.124Z,29.23
2019-04-06T22:50:07.582Z,50.10
2019-04-06T22:52:36.666Z,49.20
2019-04-06T22:55:07.328Z,33.60
2019-04-06T22:57:36.103Z,29.07
2019-04-06T23:00:08.236Z,25.50
2019-04-06T23:02:44.195Z,27.20
2019-04-06T23:05:29.540Z,25.35
2019-04-06T23:07:58.739Z,26.27
2019-04-06T23:10:27.728Z,25.02
2019-04-06T23:12:56.459Z,24.63
2019-04-06T23:15:25.474Z,22.10
2019-04-06T23:17:54.393Z,25.50
2019-04-06T23:20:22.915Z,22.98
2019-04-06T23:22:51.520Z,26.12
2019-04-06T23:25:19.950Z,25.35
2019-04-06T23:27:48.515Z,23.50
2019-04-06T23:30:18.111Z,28.17
2019-04-06T23:32:46.692Z,21.75
2019-04-06T23:35:15.258Z,20.62
2019-04-06T23:37:43.761Z,21.17
2019-04-06T23:40:12.356Z,23.92
2019-04-06T23:42:40.783Z,61.85
2019-04-06T23:45:09.229Z,53.55
2019-04-06T23:47:37.765Z,48.68
2019-04-06T23:50:07.631Z,35.92
2019-04-06T23:52:36.488Z,24.30
2019-04-06T23:55:07.515Z,26.42
2019-04-06T23:57:36.093Z,24.43
